createdAt,value
2018-03-29T00:04:32.000Z,15.8
2018-03-29T00:14:32.000Z,15.8
2018-03-29T00:24:32.000Z,15.7
2018-03-29T00:34:32.000Z,15.6
2018-03-29T00:44:32.000Z,15.6
2018-03-29T00:54:32.000Z,15.5
2018-03-29T01:04:32.000Z,15.4
2018-03-29T01:14:32.000Z,15.3
2018-03-29T01:24:32.000Z,15.4
2018-03-29T01:34:32.000Z,15.3
2018-03-29T01:44:32.000Z,15.3
2018-03-29T01:54:32.000Z,15.4
2018-03-29T02:04:32.000Z,15.3
2018-03-29T02:14:32.000Z,15.2
2018-03-29T02:24:32.000Z,15.3
2018-03-29T02:34:32.000Z,15.2
2018-03-29T02:44:32.000Z,15.3
2018-03-29T02:54:32.000Z,15.1
2018-03-29T03:04:32.000Z,15.1
2018-03-29T03:14:32.000Z,15.1
2018-03-29T03:24:32.000Z,15.2
2018-03-29T03:34:32.000Z,15.1
2018-03-29T03:44:32.000Z,15.1
2018-03-29T03:54:33.000Z,15.1
2018-03-29T04:04:33.000Z,15.1
2018-03-29T04:14:33.000Z,14.9
2018-03-29T04:24:33.000Z,15.1
2018-03-29T04:34:33.000Z,15.1
2018-03-29T04:44:33.000Z,14.8
2018-03-29T04:54:33.000Z,14.9
2018-03-29T05:04:33.000Z,14.8
2018-03-29T05:14:33.000Z,14.7
2018-03-29T05:24:33.000Z,14.7
2018-03-29T05:34:33.000Z,14.8
2018-03-29T05:44:33.000Z,14.8
2018-03-29T05:54:33.000Z,14.8
2018-03-29T06:04:33.000Z,14.8
2018-03-29T06:14:33.000Z,15
2018-03-29T06:24:33.000Z,14.9
2018-03-29T06:34:33.000Z,14.9
2018-03-29T06:44:33.000Z,14.9
2018-03-29T06:54:33.000Z,14.9
2018-03-29T07:04:33.000Z,15
2018-03-29T07:14:33.000Z,15.9
2018-03-29T07:24:33.000Z,16.8
2018-03-29T07:34:33.000Z,17.2
2018-03-29T07:44:33.000Z,17.6
2018-03-29T07:54:33.000Z,17.8
2018-03-29T08:04:33.000Z,17.8
2018-03-29T08:14:33.000Z,17.7
2018-03-29T08:24:33.000Z,17.8
2018-03-29T08:34:33.000Z,17.8
2018-03-29T08:44:33.000Z,18
2018-03-29T08:54:33.000Z,18.1
2018-03-29T09:04:33.000Z,18.1
2018-03-29T09:14:33.000Z,18.2
2018-03-29T09:24:33.000Z,18.1
2018-03-29T09:34:33.000Z,18.3
2018-03-29T09:44:33.000Z,18.3
2018-03-29T09:54:33.000Z,18.4
2018-03-29T10:04:33.000Z,18.3
2018-03-29T10:24:33.000Z,18.4
2018-03-29T10:34:33.000Z,18.5
2018-03-29T10:44:33.000Z,18.5
2018-03-29T10:54:33.000Z,18.5
2018-03-29T11:04:34.000Z,18.4
2018-03-29T11:14:35.000Z,18.6
2018-03-29T11:24:34.000Z,18.7
2018-03-29T11:34:34.000Z,18.7
2018-03-29T11:44:34.000Z,18.7
2018-03-29T11:54:34.000Z,18.8
2018-03-29T12:04:34.000Z,18.9
2018-03-29T12:14:34.000Z,18.8
2018-03-29T12:24:34.000Z,18.8
2018-03-29T12:34:34.000Z,18.9
2018-03-29T12:44:34.000Z,18.9
2018-03-29T12:54:34.000Z,19
2018-03-29T13:04:34.000Z,18.9
2018-03-29T13:14:34.000Z,18.8
2018-03-29T13:24:34.000Z,18.9
2018-03-29T13:34:34.000Z,19
2018-03-29T13:44:34.000Z,19.1
2018-03-29T13:54:34.000Z,19
2018-03-29T14:04:34.000Z,19
2018-03-29T14:14:34.000Z,19
2018-03-29T14:24:34.000Z,19
2018-03-29T14:34:34.000Z,19.1
2018-03-29T14:44:34.000Z,19.1
2018-03-29T14:54:34.000Z,19.1
2018-03-29T15:04:34.000Z,19.2
2018-03-29T15:14:34.000Z,19.2
2018-03-29T15:24:34.000Z,19.2
2018-03-29T15:34:34.000Z,19.2
2018-03-29T15:44:34.000Z,19.3
2018-03-29T15:54:34.000Z,19.3
2018-03-29T16:04:34.000Z,19.3
2018-03-29T16:14:34.000Z,19.4
2018-03-29T16:24:34.000Z,19.4
2018-03-29T16:34:34.000Z,19.5
2018-03-29T16:44:34.000Z,19.4
2018-03-29T16:54:34.000Z,19.4
2018-03-29T17:04:35.000Z,19.4
2018-03-29T17:14:34.000Z,19.5
2018-03-29T17:24:34.000Z,19.5
2018-03-29T17:34:34.000Z,19.5
2018-03-29T17:44:34.000Z,19.5
2018-03-29T17:54:34.000Z,19.5
2018-03-29T18:04:34.000Z,19.6
2018-03-29T18:14:35.000Z,19.5
2018-03-29T18:24:35.000Z,19.5
2018-03-29T18:34:35.000Z,19.5
2018-03-29T18:44:35.000Z,19.5
2018-03-29T18:54:35.000Z,19.5
2018-03-29T19:04:35.000Z,19.5
2018-03-29T19:14:35.000Z,19.6
2018-03-29T19:24:35.000Z,19.5
2018-03-29T19:34:35.000Z,19.6
2018-03-29T19:44:35.000Z,19.5
2018-03-29T19:54:35.000Z,19.4
2018-03-29T20:04:35.000Z,19.4
2018-03-29T20:14:35.000Z,19.6
2018-03-29T20:24:35.000Z,19.6
2018-03-29T20:34:35.000Z,19.6
2018-03-29T20:44:35.000Z,19.6
2018-03-29T20:54:35.000Z,19.6
2018-03-29T21:04:35.000Z,19.5
2018-03-29T21:14:35.000Z,17.9
2018-03-29T21:24:35.000Z,17.2
2018-03-29T21:34:35.000Z,16.8
2018-03-29T21:44:35.000Z,16.4
2018-03-29T21:54:35.000Z,16.6
2018-03-29T22:04:35.000Z,16.2
2018-03-29T22:14:35.000Z,16.2
2018-03-29T22:24:35.000Z,15.8
2018-03-29T22:34:35.000Z,15.7
2018-03-29T22:44:35.000Z,15.9
2018-03-29T22:54:35.000Z,15.8
2018-03-29T23:04:35.000Z,15.6
2018-03-29T23:14:35.000Z,15.4
2018-03-29T23:24:35.000Z,15.4
2018-03-29T23:34:35.000Z,15.2
2018-03-29T23:44:35.000Z,15.1
2018-03-29T23:54:35.000Z,15.2
